Time;durP1;ratioP1;P1;durP2;ratioP2;P2;SDS_P1;SDS_P2;PMS_P1;PMS_P2;Temp;Humidity;BMP_temperature;BMP_pressure;BME280_temperature;BME280_humidity;BME280_pressure;Samples;Min_cycle;Max_cycle;Signal;HPM_P1;HPM_P2
2022/11/20 00:00:54;;;;;;;20.25;16.60;;;13.80;78.00;;;;;;4593275;19;20491;-21
2022/11/20 00:02:25;;;;;;;23.00;16.85;;;13.90;78.10;;;;;;4592427;19;20332;-21
2022/11/20 00:03:57;;;;;;;23.70;18.58;;;13.80;78.00;;;;;;4591558;19;20378;-21
2022/11/20 00:05:28;;;;;;;22.53;18.33;;;13.80;78.00;;;;;;4591709;19;20014;-21
2022/11/20 00:07:00;;;;;;;21.83;17.70;;;13.80;78.20;;;;;;4592506;19;20433;-21
2022/11/20 00:08:31;;;;;;;21.45;17.17;;;13.90;78.20;;;;;;4593594;19;20156;-20
2022/11/20 00:10:02;;;;;;;25.15;19.08;;;13.90;78.50;;;;;;4591680;19;20497;-25
2022/11/20 00:11:33;;;;;;;26.42;19.70;;;13.80;78.40;;;;;;4592447;19;20444;-21
2022/11/20 00:13:04;;;;;;;22.95;18.02;;;13.80;78.80;;;;;;4593604;19;20582;-22
2022/11/20 00:14:35;;;;;;;25.08;19.00;;;13.90;78.20;;;;;;4591758;19;20018;-21
2022/11/20 00:17:58;;;;;;;26.40;19.45;;;13.90;78.40;;;;;;4592618;19;20014;-21
2022/11/20 00:19:29;;;;;;;26.85;18.67;;;13.90;78.30;;;;;;4592833;19;20019;-22
2022/11/20 00:21:09;;;;;;;24.73;18.52;;;13.90;78.20;;;;;;4593643;19;20083;-21
2022/11/20 00:22:40;;;;;;;23.03;17.23;;;13.90;78.40;;;;;;4591580;19;20014;-21
2022/11/20 00:24:11;;;;;;;22.45;17.90;;;13.90;78.20;;;;;;4591316;19;20783;-24
2022/11/20 00:25:43;;;;;;;;;;;13.90;78.40;;;;;;4593662;19;20014;-22
2022/11/20 00:27:14;;;;;;;24.57;18.20;;;13.90;78.30;;;;;;4593191;19;19915;-22
2022/11/20 00:28:52;;;;;;;26.17;18.67;;;13.90;78.40;;;;;;4592472;19;20017;-21
2022/11/20 00:30:23;;;;;;;22.77;18.27;;;13.90;78.50;;;;;;4591577;19;20062;-21
2022/11/20 00:31:55;;;;;;;25.77;18.45;;;13.90;78.50;;;;;;4593934;19;20512;-21
2022/11/20 00:33:26;;;;;;;26.73;18.95;;;13.90;78.70;;;;;;4592833;19;20024;-21
2022/11/20 00:34:57;;;;;;;29.35;20.25;;;13.90;78.70;;;;;;4592369;19;20007;-21
2022/11/20 00:36:29;;;;;;;27.00;20.23;;;13.90;78.90;;;;;;4593425;19;20014;-21
2022/11/20 00:38:00;;;;;;;29.38;20.15;;;13.90;79.10;;;;;;4592014;19;20026;-21
2022/11/20 00:39:31;;;;;;;27.75;20.45;;;13.90;79.30;;;;;;4590663;19;20003;-21
2022/11/20 00:41:05;;;;;;;26.58;19.02;;;13.90;79.20;;;;;;4592141;19;20014;-22
2022/11/20 00:42:36;;;;;;;25.83;18.20;;;13.90;79.20;;;;;;4592284;19;20358;-21
2022/11/20 00:44:07;;;;;;;23.42;18.65;;;13.80;79.10;;;;;;4591903;19;20389;-21
2022/11/20 00:45:40;;;;;;;26.15;19.73;;;13.90;79.30;;;;;;4591827;19;20415;-21
2022/11/20 00:47:11;;;;;;;22.27;17.77;;;13.90;79.40;;;;;;4592000;19;20481;-21
2022/11/20 00:48:42;;;;;;;21.88;17.52;;;13.90;79.40;;;;;;4592794;19;21007;-21
2022/11/20 00:50:14;;;;;;;23.70;19.27;;;13.80;79.60;;;;;;4592817;19;20014;-21
2022/11/20 00:51:45;;;;;;;23.55;19.15;;;13.90;79.50;;;;;;4592025;19;20044;-21
2022/11/20 00:53:16;;;;;;;25.50;18.67;;;13.90;79.50;;;;;;4592031;19;20015;-21
2022/11/20 00:54:47;;;;;;;23.05;18.48;;;13.90;79.50;;;;;;4592076;19;20019;-21
2022/11/20 00:56:19;;;;;;;24.02;18.35;;;13.90;79.50;;;;;;4592928;19;20007;-22
2022/11/20 00:57:50;;;;;;;25.52;18.67;;;13.90;79.60;;;;;;4592046;19;20014;-21
2022/11/20 00:59:21;;;;;;;26.15;18.55;;;13.90;79.40;;;;;;4591249;19;20010;-21
2022/11/20 01:00:52;;;;;;;24.08;18.35;;;13.90;79.40;;;;;;4592049;19;20038;-21
2022/11/20 01:02:23;;;;;;;23.98;19.05;;;13.90;79.30;;;;;;4589173;19;19999;-21
2022/11/20 01:03:56;;;;;;;24.15;19.20;;;13.90;79.40;;;;;;4590088;19;20019;-21
2022/11/20 01:05:27;;;;;;;21.47;18.57;;;13.90;79.20;;;;;;4590658;19;20046;-20
2022/11/20 01:07:00;;;;;;;22.10;17.52;;;13.80;79.30;;;;;;4591823;19;20421;-21
2022/11/20 01:08:34;;;;;;;22.03;18.00;;;13.90;79.40;;;;;;4591604;19;20006;-22
2022/11/20 01:10:06;;;;;;;20.47;17.50;;;13.90;79.30;;;;;;4590393;19;20560;-21
2022/11/20 01:11:39;;;;;;;23.93;18.57;;;13.90;79.30;;;;;;4590107;19;20432;-22
2022/11/20 01:15:00;;;;;;;26.60;19.57;;;13.90;79.30;;;;;;4591219;19;20005;-23
2022/11/20 01:16:32;;;;;;;33.05;22.92;;;13.90;79.30;;;;;;4591762;19;20015;-21
2022/11/20 01:18:03;;;;;;;35.70;23.23;;;13.90;79.30;;;;;;4591862;19;20028;-22
2022/11/20 01:19:34;;;;;;;36.63;24.00;;;13.90;79.20;;;;;;4591684;19;20475;-22
2022/11/20 01:21:08;;;;;;;32.92;22.33;;;13.90;79.10;;;;;;4590282;19;20069;-21
2022/11/20 01:22:39;;;;;;;32.80;22.17;;;13.80;79.10;;;;;;4590633;19;20026;-21
2022/11/20 01:24:14;;;;;;;31.15;20.98;;;13.90;79.20;;;;;;4590528;19;20429;-23
2022/11/20 01:25:45;;;;;;;26.23;20.70;;;13.90;79.20;;;;;;4590665;19;20357;-22
2022/11/20 01:27:17;;;;;;;31.08;21.60;;;13.90;79.30;;;;;;4590682;19;21062;-21
2022/11/20 01:28:48;;;;;;;31.02;20.90;;;13.90;79.40;;;;;;4591414;19;20003;-22
2022/11/20 01:30:19;;;;;;;32.53;21.88;;;13.90;79.30;;;;;;4591743;19;20011;-20
2022/11/20 01:31:51;;;;;;;33.03;22.23;;;13.90;79.30;;;;;;4591805;19;20081;-21
2022/11/20 01:33:22;;;;;;;32.40;23.15;;;13.90;79.40;;;;;;4591220;19;20010;-21
2022/11/20 01:34:53;;;;;;;30.02;21.50;;;13.80;79.40;;;;;;4590203;19;20006;-21
2022/11/20 01:36:26;;;;;;;25.00;18.85;;;13.80;80.00;;;;;;4590736;19;20031;-21
2022/11/20 01:37:57;;;;;;;24.57;19.50;;;13.80;79.40;;;;;;4591761;19;20324;-21
2022/11/20 01:39:28;;;;;;;23.60;18.75;;;13.90;79.40;;;;;;4590721;19;20476;-21
2022/11/20 01:41:00;;;;;;;24.48;18.80;;;13.90;80.00;;;;;;4591415;19;20334;-22
2022/11/20 01:44:39;;;;;;;25.27;19.00;;;13.90;79.80;;;;;;4588914;19;20031;-22
2022/11/20 01:46:19;;;;;;;23.27;18.10;;;13.90;79.70;;;;;;4589945;19;20787;-21
2022/11/20 01:47:50;;;;;;;20.27;17.33;;;13.90;79.70;;;;;;4589666;19;20465;-21
2022/11/20 01:49:33;;;;;;;21.02;17.25;;;14.00;79.70;;;;;;4590086;19;20425;-21
2022/11/20 01:51:07;;;;;;;23.80;17.77;;;14.00;79.70;;;;;;4591016;19;20390;-21
2022/11/20 01:52:41;;;;;;;24.13;18.27;;;14.00;79.80;;;;;;4590155;19;20527;-25
2022/11/20 01:54:15;;;;;;;24.10;18.90;;;14.00;79.60;;;;;;4589440;19;20476;-25
2022/11/20 01:55:50;;;;;;;24.50;17.77;;;14.00;79.70;;;;;;4589659;19;20455;-21
2022/11/20 01:57:22;;;;;;;22.77;18.17;;;14.00;79.60;;;;;;4590170;19;20388;-22
2022/11/20 01:58:56;;;;;;;22.25;17.20;;;14.00;79.60;;;;;;4590423;19;20550;-22
2022/11/20 02:00:28;;;;;;;23.30;17.73;;;14.00;79.50;;;;;;4590746;19;20020;-21
2022/11/20 02:01:59;;;;;;;23.63;18.20;;;14.00;79.40;;;;;;4590746;19;20472;-21
2022/11/20 02:03:30;;;;;;;21.85;16.92;;;14.00;79.60;;;;;;4589438;19;20465;-22
2022/11/20 02:05:05;;;;;;;23.77;17.80;;;14.00;79.60;;;;;;4589921;19;20011;-21
2022/11/20 02:06:44;;;;;;;21.30;17.47;;;14.00;79.70;;;;;;4589390;19;20010;-21
2022/11/20 02:08:15;;;;;;;22.90;18.07;;;14.00;79.60;;;;;;4589290;19;20818;-21
2022/11/20 02:09:46;;;;;;;22.35;17.17;;;14.00;79.60;;;;;;4590534;19;20756;-21
2022/11/20 02:11:18;;;;;;;21.08;16.73;;;14.00;79.60;;;;;;4591071;19;20010;-21
2022/11/20 02:14:40;;;;;;;22.67;17.90;;;14.00;79.50;;;;;;4589350;19;20014;-24
2022/11/20 02:16:28;;;;;;;22.88;18.40;;;14.00;79.50;;;;;;4590912;19;20021;-21
2022/11/20 02:18:01;;;;;;;22.77;17.40;;;14.00;79.50;;;;;;4589344;19;20009;-22
2022/11/20 02:19:32;;;;;;;21.00;17.38;;;14.00;79.30;;;;;;4590450;19;20437;-22
2022/11/20 02:21:27;;;;;;;;;;;14.00;79.20;;;;;;4590096;19;20007;-21
2022/11/20 02:23:04;;;;;;;23.37;18.03;;;14.00;79.10;;;;;;4587150;19;19939;-21
2022/11/20 02:24:39;;;;;;;22.87;18.43;;;14.00;79.00;;;;;;4588438;19;20469;-21
2022/11/20 02:26:11;;;;;;;25.10;18.55;;;14.00;79.00;;;;;;4588119;19;20412;-21
2022/11/20 02:27:42;;;;;;;24.30;18.43;;;13.90;79.00;;;;;;4587791;19;20040;-21
2022/11/20 02:29:15;;;;;;;24.15;18.45;;;13.90;79.00;;;;;;4526422;19;20807;-22
2022/11/20 02:30:46;;;;;;;25.47;20.73;;;13.90;79.10;;;;;;4588426;19;19999;-22
2022/11/20 02:32:27;;;;;;;28.25;22.17;;;11.60;81.80;;;;;;4587828;19;20432;-21
2022/11/20 02:33:58;;;;;;;25.67;20.67;;;10.00;86.10;;;;;;4587925;19;20018;-20
2022/11/20 02:35:29;;;;;;;27.23;21.20;;;9.30;88.10;;;;;;4587996;19;20421;-21
2022/11/20 02:37:00;;;;;;;28.25;21.73;;;8.90;89.70;;;;;;4587858;19;20426;-21
2022/11/20 02:38:31;;;;;;;28.42;21.95;;;8.70;90.30;;;;;;4588392;19;20472;-21
2022/11/20 02:40:03;;;;;;;30.00;21.85;;;8.60;90.40;;;;;;4586852;19;20014;-20
2022/11/20 02:41:35;;;;;;;31.08;22.63;;;8.50;90.80;;;;;;4587822;19;20021;-21
2022/11/20 02:43:06;;;;;;;32.00;23.10;;;8.40;90.90;;;;;;4587566;19;20018;-21
2022/11/20 02:44:37;;;;;;;33.70;23.83;;;8.30;91.00;;;;;;4587991;19;20429;-20
2022/11/20 02:46:09;;;;;;;29.65;22.92;;;8.20;91.00;;;;;;4587528;19;20476;-21
2022/11/20 02:47:40;;;;;;;30.90;22.95;;;8.20;91.00;;;;;;4587654;19;20357;-20
2022/11/20 02:49:11;;;;;;;31.00;22.85;;;8.10;91.30;;;;;;4588518;19;20024;-21
2022/11/20 02:50:42;;;;;;;31.27;21.38;;;8.10;91.70;;;;;;4587653;19;20014;-20
2022/11/20 02:52:13;;;;;;;30.40;20.77;;;8.10;91.50;;;;;;4587482;19;20019;-21
2022/11/20 02:53:44;;;;;;;29.98;21.80;;;8.00;91.40;;;;;;4587728;19;20552;-21
2022/11/20 02:55:16;;;;;;;29.20;21.42;;;8.00;91.40;;;;;;4587677;19;20015;-21
2022/11/20 02:56:47;;;;;;;29.65;21.50;;;7.90;91.40;;;;;;4587472;19;20078;-22
2022/11/20 02:58:18;;;;;;;31.98;21.88;;;7.90;91.60;;;;;;4587657;19;20015;-23
2022/11/20 02:59:50;;;;;;;29.27;22.13;;;8.00;91.70;;;;;;4587761;19;20027;-22
2022/11/20 03:01:21;;;;;;;26.65;20.17;;;8.90;91.30;;;;;;4589870;19;20473;-21
2022/11/20 03:02:52;;;;;;;29.75;21.33;;;10.00;89.80;;;;;;4589477;19;20010;-21
2022/11/20 03:04:23;;;;;;;28.90;20.48;;;10.70;87.80;;;;;;4588944;19;20011;-22
2022/11/20 03:05:54;;;;;;;27.15;21.15;;;11.30;86.50;;;;;;4590052;19;20361;-21
2022/11/20 03:07:25;;;;;;;28.70;20.23;;;11.60;85.40;;;;;;4589550;19;20002;-23
2022/11/20 03:08:56;;;;;;;25.75;19.65;;;11.90;84.60;;;;;;4589477;19;20015;-22
2022/11/20 03:10:28;;;;;;;27.13;19.80;;;12.10;84.80;;;;;;4590023;19;20491;-21
2022/11/20 03:11:59;;;;;;;28.13;20.17;;;12.20;84.10;;;;;;4590112;19;20010;-21
2022/11/20 03:13:30;;;;;;;24.42;19.15;;;12.40;83.80;;;;;;4588279;19;20483;-21
2022/11/20 03:15:01;;;;;;;23.50;19.17;;;12.50;83.60;;;;;;4587017;19;20403;-20
2022/11/20 03:16:33;;;;;;;25.20;18.85;;;12.60;83.20;;;;;;4588668;19;20021;-21
2022/11/20 03:18:04;;;;;;;21.63;17.38;;;12.70;83.20;;;;;;4590035;19;20018;-21
2022/11/20 03:19:35;;;;;;;;;;;12.70;83.00;;;;;;4590000;19;20484;-21
2022/11/20 03:21:07;;;;;;;26.40;18.43;;;12.80;82.80;;;;;;4588203;19;20383;-21
2022/11/20 03:22:38;;;;;;;24.63;18.60;;;12.90;82.70;;;;;;4588357;19;20792;-23
2022/11/20 03:24:09;;;;;;;23.90;19.75;;;12.90;82.40;;;;;;4589398;19;20062;-20
2022/11/20 03:25:40;;;;;;;23.92;18.05;;;13.00;82.40;;;;;;4589381;19;20021;-22
2022/11/20 03:27:11;;;;;;;23.75;16.98;;;13.00;82.40;;;;;;4593993;19;20011;-21
2022/11/20 03:28:50;;;;;;;23.58;17.52;;;13.10;82.50;;;;;;4594120;19;20349;-22
2022/11/20 03:30:21;;;;;;;21.53;17.90;;;13.10;82.20;;;;;;4593682;19;20015;-21
2022/11/20 03:31:52;;;;;;;22.20;17.77;;;13.20;82.30;;;;;;4592737;19;20488;-25
2022/11/20 03:33:23;;;;;;;21.92;17.33;;;13.20;82.40;;;;;;4593829;19;20034;-21
2022/11/20 03:34:54;;;;;;;20.52;17.70;;;13.20;82.30;;;;;;4593961;19;20002;-21
2022/11/20 03:36:25;;;;;;;24.13;19.17;;;13.20;82.20;;;;;;4593452;19;20015;-21
2022/11/20 03:37:57;;;;;;;24.13;18.20;;;13.20;82.20;;;;;;4592662;19;20108;-24
2022/11/20 03:39:29;;;;;;;22.57;18.80;;;13.30;82.00;;;;;;4592709;19;20066;-22
2022/11/20 03:41:10;;;;;;;21.80;17.63;;;13.30;82.00;;;;;;4592596;19;20433;-21
2022/11/20 03:42:47;;;;;;;24.88;19.30;;;13.30;81.90;;;;;;4593145;19;20021;-21
2022/11/20 03:44:21;;;;;;;20.03;16.70;;;13.40;81.60;;;;;;4589560;19;20476;-21
2022/11/20 03:45:52;;;;;;;22.40;17.33;;;13.40;81.50;;;;;;4591141;19;20552;-25
2022/11/20 03:47:23;;;;;;;20.05;16.05;;;13.40;81.60;;;;;;4591752;19;20455;-21
2022/11/20 03:48:54;;;;;;;22.08;17.35;;;13.40;81.50;;;;;;4591230;19;20042;-21
2022/11/20 03:50:25;;;;;;;21.63;16.88;;;13.40;81.50;;;;;;4591168;19;20507;-21
2022/11/20 03:51:56;;;;;;;21.63;17.55;;;13.40;81.30;;;;;;4591137;19;20015;-21
2022/11/20 03:53:28;;;;;;;23.30;17.48;;;13.40;81.30;;;;;;4591603;19;20014;-22
2022/11/20 03:54:59;;;;;;;22.75;17.27;;;13.50;81.40;;;;;;4591036;19;20103;-22
2022/11/20 03:56:31;;;;;;;23.52;17.73;;;13.50;81.20;;;;;;4591053;19;20086;-21
2022/11/20 03:58:02;;;;;;;21.73;17.27;;;13.50;81.10;;;;;;4591462;19;20016;-22
2022/11/20 03:59:34;;;;;;;22.42;18.08;;;13.50;81.10;;;;;;4590794;19;20540;-22
2022/11/20 04:01:13;;;;;;;22.58;17.83;;;13.50;81.10;;;;;;4590865;19;20011;-21
2022/11/20 04:02:44;;;;;;;22.80;17.93;;;13.50;81.00;;;;;;4591013;19;20006;-22
2022/11/20 04:04:15;;;;;;;21.33;17.35;;;13.50;81.00;;;;;;4590309;19;20573;-21
2022/11/20 04:05:46;;;;;;;23.45;18.10;;;13.50;80.70;;;;;;4590893;19;20006;-22
2022/11/20 04:07:17;;;;;;;21.67;17.88;;;13.50;80.70;;;;;;4590717;19;20111;-20
2022/11/20 04:08:49;;;;;;;21.63;17.48;;;13.60;80.70;;;;;;4591440;19;20015;-21
2022/11/20 04:10:20;;;;;;;23.77;19.05;;;13.60;80.80;;;;;;4590849;19;20356;-21
2022/11/20 04:11:51;;;;;;;22.90;18.50;;;13.60;80.60;;;;;;4590578;19;20030;-21
2022/11/20 04:13:22;;;;;;;23.10;18.20;;;13.60;80.70;;;;;;4591161;19;20070;-21
2022/11/20 04:14:53;;;;;;;21.58;17.55;;;13.60;80.80;;;;;;4591007;19;20036;-21
2022/11/20 04:16:25;;;;;;;23.05;18.92;;;13.60;80.80;;;;;;4592548;19;20010;-21
2022/11/20 04:17:56;;;;;;;23.38;17.85;;;13.60;80.80;;;;;;4592873;19;20002;-21
2022/11/20 04:19:27;;;;;;;23.20;18.38;;;13.60;81.00;;;;;;4591760;19;20475;-22
2022/11/20 04:20:59;;;;;;;25.75;19.35;;;13.60;80.70;;;;;;4592450;19;20088;-22
2022/11/20 04:22:30;;;;;;;21.88;17.52;;;13.60;80.90;;;;;;4591199;19;20015;-21
2022/11/20 04:24:01;;;;;;;21.48;18.05;;;13.60;80.80;;;;;;4590629;19;20081;-21
2022/11/20 04:25:32;;;;;;;24.73;18.90;;;13.60;80.80;;;;;;4592399;19;20006;-21
2022/11/20 04:27:03;;;;;;;22.75;18.05;;;13.60;80.80;;;;;;4593031;19;20550;-21
2022/11/20 04:28:35;;;;;;;21.30;17.85;;;13.70;80.90;;;;;;4590310;19;20015;-21
2022/11/20 04:30:06;;;;;;;22.55;17.83;;;13.70;81.00;;;;;;4591743;19;20348;-21
2022/11/20 04:31:38;;;;;;;24.27;18.85;;;13.70;81.10;;;;;;4593104;19;20081;-22
2022/11/20 04:33:09;;;;;;;22.48;17.92;;;13.70;80.90;;;;;;4591910;19;20007;-21
2022/11/20 04:34:40;;;;;;;25.92;18.20;;;13.70;81.00;;;;;;4592056;19;20019;-21
2022/11/20 04:36:15;;;;;;;23.17;18.45;;;13.60;81.10;;;;;;4592709;19;20017;-21
2022/11/20 04:37:46;;;;;;;22.67;18.37;;;13.60;81.00;;;;;;4592310;19;20006;-21
2022/11/20 04:39:17;;;;;;;26.42;20.33;;;13.70;81.10;;;;;;4592234;19;21167;-20
2022/11/20 04:40:48;;;;;;;24.10;19.52;;;13.70;81.00;;;;;;4592367;19;20014;-21
2022/11/20 04:42:28;;;;;;;25.88;18.92;;;13.60;81.10;;;;;;4592387;19;20041;-21
2022/11/20 04:44:02;;;;;;;27.10;20.63;;;13.70;81.10;;;;;;4592046;19;20009;-22
2022/11/20 04:45:33;;;;;;;26.97;20.27;;;13.70;81.00;;;;;;4592834;19;20447;-22
2022/11/20 04:47:05;;;;;;;25.25;19.05;;;13.70;81.10;;;;;;4589817;19;20437;-25
2022/11/20 04:48:36;;;;;;;23.15;18.55;;;13.70;81.10;;;;;;4591390;19;20405;-22
2022/11/20 04:50:07;;;;;;;27.55;20.02;;;13.70;81.10;;;;;;4592661;19;20018;-21
2022/11/20 04:51:38;;;;;;;25.67;20.27;;;13.70;81.20;;;;;;4593012;19;20043;-21
2022/11/20 04:53:10;;;;;;;24.85;19.75;;;13.70;80.90;;;;;;4592287;19;20017;-20
2022/11/20 04:54:41;;;;;;;25.00;19.60;;;13.70;80.60;;;;;;4592236;19;20027;-20
2022/11/20 04:56:12;;;;;;;25.50;19.48;;;13.70;80.70;;;;;;4592334;19;20468;-21
2022/11/20 04:57:43;;;;;;;25.33;19.85;;;13.70;80.80;;;;;;4591779;19;20022;-23
2022/11/20 04:59:14;;;;;;;27.85;21.23;;;13.70;80.80;;;;;;4589638;19;20021;-22
2022/11/20 05:00:45;;;;;;;26.25;20.95;;;13.70;80.70;;;;;;4590434;19;20120;-21
2022/11/20 05:02:17;;;;;;;22.23;18.42;;;13.70;80.70;;;;;;4591656;19;20026;-22
2022/11/20 05:03:48;;;;;;;24.90;18.85;;;13.70;80.40;;;;;;4591287;19;20018;-23
2022/11/20 05:05:19;;;;;;;24.73;19.70;;;13.70;80.50;;;;;;4591854;19;20015;-21
2022/11/20 05:06:50;;;;;;;25.45;18.33;;;13.70;80.70;;;;;;4592500;19;19998;-22
2022/11/20 05:08:22;;;;;;;24.95;19.48;;;13.70;80.50;;;;;;4592047;19;20011;-23
2022/11/20 05:09:53;;;;;;;23.02;19.08;;;13.70;80.30;;;;;;4591641;19;20468;-21
2022/11/20 05:11:25;;;;;;;25.07;18.70;;;13.70;80.60;;;;;;4591896;19;20007;-21
2022/11/20 05:12:57;;;;;;;22.52;17.92;;;13.70;80.50;;;;;;4592278;19;20066;-21
2022/11/20 05:14:28;;;;;;;24.03;18.67;;;13.70;80.60;;;;;;4591826;19;20014;-22
2022/11/20 05:16:10;;;;;;;26.08;20.63;;;13.70;80.70;;;;;;4591730;19;20441;-21
2022/11/20 05:17:41;;;;;;;23.63;18.23;;;13.70;81.30;;;;;;4591991;19;20357;-21
2022/11/20 05:19:12;;;;;;;22.60;17.83;;;13.70;80.60;;;;;;4590700;19;20493;-21
2022/11/20 05:20:43;;;;;;;23.10;18.65;;;13.70;80.60;;;;;;4591069;19;20010;-24
2022/11/20 05:22:15;;;;;;;21.67;18.10;;;13.70;80.60;;;;;;4591335;19;20025;-21
2022/11/20 05:23:46;;;;;;;22.77;19.13;;;13.70;80.60;;;;;;4590697;19;20025;-21
2022/11/20 05:25:17;;;;;;;23.63;18.75;;;13.70;80.70;;;;;;4592321;19;20017;-21
2022/11/20 05:26:48;;;;;;;23.10;18.00;;;13.70;80.70;;;;;;4591293;19;20074;-21
2022/11/20 05:28:20;;;;;;;25.40;18.02;;;13.70;80.60;;;;;;4591395;19;20014;-21
2022/11/20 05:29:51;;;;;;;25.00;19.52;;;13.70;80.60;;;;;;4590464;19;20010;-22
2022/11/20 05:31:23;;;;;;;24.63;20.33;;;13.70;80.40;;;;;;4590110;19;20022;-22
2022/11/20 05:32:54;;;;;;;22.13;18.30;;;13.80;80.60;;;;;;4590721;19;20415;-23
2022/11/20 05:34:25;;;;;;;21.85;17.20;;;13.80;80.50;;;;;;4591326;19;20502;-21
2022/11/20 05:36:00;;;;;;;24.35;19.48;;;13.80;80.70;;;;;;4591696;19;20035;-21
2022/11/20 05:37:31;;;;;;;24.20;19.87;;;13.80;80.80;;;;;;4591004;19;20010;-21
2022/11/20 05:39:02;;;;;;;23.65;18.55;;;13.70;80.70;;;;;;4590257;19;20555;-22
2022/11/20 05:40:35;;;;;;;24.97;19.73;;;13.70;80.70;;;;;;4590485;19;20027;-22
2022/11/20 05:43:56;;;;;;;26.07;19.93;;;13.80;80.80;;;;;;4591267;19;20460;-21
2022/11/20 05:45:28;;;;;;;23.07;18.47;;;13.80;80.90;;;;;;4590220;19;20469;-21
2022/11/20 05:47:00;;;;;;;24.93;19.93;;;13.80;80.90;;;;;;4590750;19;20507;-23
2022/11/20 05:48:32;;;;;;;22.27;18.13;;;13.80;80.70;;;;;;4589385;19;20594;-22
2022/11/20 05:50:04;;;;;;;23.67;18.13;;;13.80;80.80;;;;;;4591471;19;20018;-21
2022/11/20 05:51:35;;;;;;;22.92;18.55;;;13.80;80.70;;;;;;4589213;19;20518;-21
2022/11/20 05:53:06;;;;;;;23.63;19.38;;;13.80;80.90;;;;;;4588366;19;20021;-21
2022/11/20 05:54:38;;;;;;;25.00;19.75;;;13.80;80.90;;;;;;4592245;19;20010;-21
2022/11/20 05:56:15;;;;;;;24.67;18.67;;;13.80;80.80;;;;;;4589118;19;20014;-21
2022/11/20 05:57:47;;;;;;;27.43;20.13;;;13.80;81.10;;;;;;4591053;19;21110;-23
2022/11/20 05:59:18;;;;;;;24.00;18.40;;;13.80;80.90;;;;;;4590936;19;20464;-23
2022/11/20 06:00:49;;;;;;;24.10;20.08;;;13.80;81.20;;;;;;4589955;19;20019;-21
2022/11/20 06:02:21;;;;;;;24.20;19.75;;;13.80;81.00;;;;;;4589939;19;20022;-22
2022/11/20 06:03:53;;;;;;;;;;;13.80;80.90;;;;;;4589756;19;20024;-22
2022/11/20 06:05:24;;;;;;;23.63;20.15;;;13.80;80.90;;;;;;4591600;19;19923;-22
2022/11/20 06:06:55;;;;;;;24.15;20.80;;;13.80;80.90;;;;;;4588317;19;20432;-21
2022/11/20 06:08:26;;;;;;;27.23;20.48;;;13.80;80.70;;;;;;4587917;19;20469;-22
2022/11/20 06:09:57;;;;;;;25.15;20.27;;;13.80;80.80;;;;;;4591007;19;20010;-23
2022/11/20 06:11:28;;;;;;;36.15;24.33;;;13.80;80.80;;;;;;4590790;19;20472;-23
2022/11/20 06:13:00;;;;;;;35.85;22.83;;;13.80;80.80;;;;;;4589678;19;20019;-21
2022/11/20 06:14:31;;;;;;;32.88;22.88;;;13.80;80.80;;;;;;4589449;19;20018;-21
2022/11/20 06:16:02;;;;;;;33.50;22.83;;;13.80;80.80;;;;;;4590493;19;20014;-23
2022/11/20 06:17:34;;;;;;;29.40;23.50;;;13.80;80.90;;;;;;4589853;19;20019;-22
2022/11/20 06:19:05;;;;;;;31.67;23.42;;;13.80;80.80;;;;;;4589248;19;20007;-22
2022/11/20 06:20:37;;;;;;;28.45;22.17;;;13.80;80.70;;;;;;4591055;19;20010;-21
2022/11/20 06:22:08;;;;;;;27.48;23.15;;;13.80;80.80;;;;;;4590057;19;20042;-21
2022/11/20 06:23:39;;;;;;;26.52;21.20;;;13.80;80.70;;;;;;4589716;19;20030;-21
2022/11/20 06:25:10;;;;;;;26.85;21.90;;;13.80;80.80;;;;;;4589375;19;20038;-21
2022/11/20 06:26:41;;;;;;;25.65;20.73;;;13.90;80.80;;;;;;4589593;19;20074;-21
2022/11/20 06:28:13;;;;;;;25.55;20.77;;;14.00;80.70;;;;;;4589309;19;20019;-21
2022/11/20 06:29:44;;;;;;;31.73;22.08;;;14.00;80.60;;;;;;4589116;19;20490;-21
2022/11/20 06:31:17;;;;;;;26.55;20.45;;;14.10;80.40;;;;;;4589369;19;20015;-25
2022/11/20 06:32:48;;;;;;;29.57;20.60;;;14.10;80.30;;;;;;4588417;19;20604;-22
2022/11/20 06:34:19;;;;;;;27.42;21.05;;;14.20;80.20;;;;;;4590410;19;20027;-21
2022/11/20 06:35:51;;;;;;;28.63;20.95;;;14.20;80.00;;;;;;4590226;19;20022;-21
2022/11/20 06:37:21;;;;;;;28.05;23.80;;;14.20;80.00;;;;;;4590584;19;20011;-21
2022/11/20 06:38:53;;;;;;;29.77;26.25;;;14.30;80.20;;;;;;4588756;19;20010;-23
2022/11/20 06:40:24;;;;;;;28.77;24.20;;;14.20;80.00;;;;;;4587526;19;20053;-21
2022/11/20 06:41:55;;;;;;;28.95;23.92;;;14.20;80.00;;;;;;4590185;19;20011;-21
2022/11/20 06:43:28;;;;;;;28.33;23.70;;;14.20;80.00;;;;;;4588585;19;20078;-20
2022/11/20 06:44:59;;;;;;;28.80;22.73;;;14.20;80.10;;;;;;4587257;19;20019;-21
2022/11/20 06:46:30;;;;;;;28.00;22.10;;;14.20;80.10;;;;;;4589580;19;21020;-20
2022/11/20 06:48:03;;;;;;;31.60;25.23;;;14.20;80.10;;;;;;4589704;19;20042;-21
2022/11/20 06:49:36;;;;;;;29.93;25.87;;;14.10;80.00;;;;;;4589121;19;20011;-21
2022/11/20 06:51:08;;;;;;;31.00;27.57;;;14.10;80.10;;;;;;4589678;19;20425;-25
2022/11/20 06:52:39;;;;;;;31.92;26.60;;;14.10;80.00;;;;;;4590283;19;20062;-21
2022/11/20 06:54:10;;;;;;;29.38;24.80;;;14.10;80.10;;;;;;4588513;19;20413;-23
2022/11/20 06:55:43;;;;;;;30.73;24.92;;;14.10;80.20;;;;;;4589700;19;20492;-22
2022/11/20 06:57:14;;;;;;;29.37;24.00;;;14.00;80.20;;;;;;4588936;19;20010;-23
2022/11/20 06:58:46;;;;;;;23.13;20.25;;;14.00;80.30;;;;;;4589368;19;20475;-23
2022/11/20 07:00:17;;;;;;;27.58;23.38;;;14.00;80.40;;;;;;4591255;19;20017;-23
2022/11/20 07:01:48;;;;;;;27.23;22.80;;;14.00;80.50;;;;;;4594387;19;20007;-22
2022/11/20 07:03:19;;;;;;;29.45;23.75;;;14.00;80.50;;;;;;4593898;19;20015;-23
2022/11/20 07:04:50;;;;;;;29.88;23.80;;;14.00;80.50;;;;;;4592092;19;20109;-21
2022/11/20 07:06:22;;;;;;;28.15;24.10;;;14.00;80.60;;;;;;4594213;19;20018;-21
2022/11/20 07:07:56;;;;;;;26.67;20.83;;;14.00;80.60;;;;;;4594711;19;20414;-22
2022/11/20 07:09:27;;;;;;;23.17;19.10;;;13.90;80.60;;;;;;4594856;19;20044;-21
2022/11/20 07:10:59;;;;;;;25.65;19.45;;;13.90;80.30;;;;;;4593899;19;20820;-22
2022/11/20 07:12:30;;;;;;;25.53;19.57;;;13.90;80.50;;;;;;4592921;19;20022;-22
2022/11/20 07:14:01;;;;;;;22.17;18.77;;;13.90;80.50;;;;;;4593895;19;20429;-22
2022/11/20 07:15:33;;;;;;;24.02;19.30;;;13.90;80.50;;;;;;4594873;19;20011;-21
2022/11/20 07:17:04;;;;;;;24.10;18.33;;;13.90;80.70;;;;;;4594082;19;20021;-22
2022/11/20 07:18:36;;;;;;;24.00;18.95;;;13.90;80.70;;;;;;4592880;19;20014;-21
2022/11/20 07:20:07;;;;;;;24.63;19.88;;;13.90;80.90;;;;;;4593643;19;20014;-22
2022/11/20 07:21:38;;;;;;;25.17;19.98;;;13.90;80.90;;;;;;4592930;19;20017;-21
2022/11/20 07:23:09;;;;;;;25.02;19.92;;;13.90;80.80;;;;;;4592531;19;20018;-22
2022/11/20 07:24:40;;;;;;;23.10;19.35;;;13.90;80.70;;;;;;4592772;19;20147;-22
2022/11/20 07:26:11;;;;;;;26.30;19.88;;;13.80;80.60;;;;;;4593583;19;20011;-21
2022/11/20 07:27:43;;;;;;;23.27;19.67;;;13.90;80.60;;;;;;4594445;19;20074;-23
2022/11/20 07:29:16;;;;;;;22.00;19.05;;;13.90;80.60;;;;;;4592085;19;20014;-21
2022/11/20 07:30:51;;;;;;;25.27;19.87;;;13.90;80.80;;;;;;4591855;19;20018;-22
2022/11/20 07:32:23;;;;;;;23.37;19.00;;;13.90;80.50;;;;;;4592617;19;20023;-21
2022/11/20 07:33:54;;;;;;;;;;;13.90;80.60;;;;;;4592208;19;20445;-21
2022/11/20 07:35:25;;;;;;;26.67;20.33;;;13.90;80.40;;;;;;4591669;19;20325;-23
2022/11/20 07:36:57;;;;;;;22.23;19.02;;;14.00;80.60;;;;;;4592548;19;20448;-21
2022/11/20 07:38:28;;;;;;;25.25;19.52;;;14.00;80.50;;;;;;4591033;19;20014;-21
2022/11/20 07:40:00;;;;;;;25.90;20.65;;;14.00;80.60;;;;;;4591927;19;20026;-23
2022/11/20 07:41:32;;;;;;;25.02;20.63;;;14.00;80.60;;;;;;4592755;19;20015;-22
2022/11/20 07:43:04;;;;;;;22.67;18.83;;;14.00;80.30;;;;;;4593109;19;20344;-23
2022/11/20 07:44:38;;;;;;;24.93;20.30;;;14.00;80.30;;;;;;4591913;19;20014;-21
2022/11/20 07:46:11;;;;;;;23.87;20.80;;;14.00;80.50;;;;;;4592851;19;20503;-22
2022/11/20 07:47:43;;;;;;;25.63;20.00;;;14.00;80.40;;;;;;4592632;19;20485;-21
2022/11/20 07:49:15;;;;;;;25.88;20.55;;;13.90;80.20;;;;;;4592576;19;20033;-21
2022/11/20 07:50:47;;;;;;;26.07;19.77;;;14.00;80.10;;;;;;4591869;19;20758;-23
2022/11/20 07:52:20;;;;;;;25.60;20.17;;;14.00;80.10;;;;;;4591397;19;20463;-23
2022/11/20 07:53:54;;;;;;;25.30;20.43;;;14.00;80.20;;;;;;4590248;19;20082;-23
2022/11/20 07:55:27;;;;;;;27.03;21.33;;;14.00;80.30;;;;;;4591580;19;20432;-22
2022/11/20 07:57:02;;;;;;;23.90;19.30;;;14.00;80.50;;;;;;4593033;19;20499;-21